Time;durP1;ratioP1;P1;durP2;ratioP2;P2;SDS_P1;SDS_P2;PMS_P1;PMS_P2;Temp;Humidity;BMP_temperature;BMP_pressure;BME280_temperature;BME280_humidity;BME280_pressure;Samples;Min_cycle;Max_cycle;Signal;HPM_P1;HPM_P2
2020/12/12 00:00:19;;;;;;;19.52;11.80;;;;;;;;;;5053278;28;20021;-64
2020/12/12 00:02:45;;;;;;;20.35;11.32;;;;;;;;;;5053494;28;20103;-64
2020/12/12 00:05:11;;;;;;;21.95;10.82;;;;;;;;;;5053336;28;20045;-64
2020/12/12 00:07:37;;;;;;;19.67;10.18;;;;;;;;;;5053298;28;20040;-64
2020/12/12 00:10:03;;;;;;;20.10;10.18;;;;;;;;;;5053071;28;20056;-64
2020/12/12 00:12:29;;;;;;;15.25;10.02;;;;;;;;;;5053115;28;20060;-64
2020/12/12 00:14:55;;;;;;;16.58;9.73;;;;;;;;;;5053190;28;20025;-64
2020/12/12 00:17:22;;;;;;;15.75;10.30;;;;;;;;;;5053278;28;20037;-64
2020/12/12 00:19:48;;;;;;;16.38;9.85;;;;;;;;;;5053350;28;20410;-64
2020/12/12 00:22:14;;;;;;;18.73;9.80;;;;;;;;;;5053256;28;20128;-64
2020/12/12 00:24:40;;;;;;;17.42;9.95;;;;;;;;;;5053034;28;20075;-63
2020/12/12 00:27:06;;;;;;;16.58;9.23;;;;;;;;;;5052824;28;20052;-64
2020/12/12 00:29:32;;;;;;;14.68;9.57;;;;;;;;;;5052985;28;20036;-64
2020/12/12 00:31:59;;;;;;;15.25;9.18;;;;;;;;;;5052822;28;20025;-64
2020/12/12 00:34:26;;;;;;;14.05;8.43;;;;;;;;;;5053304;28;20473;-64
2020/12/12 00:36:52;;;;;;;12.30;8.90;;;;;;;;;;5052780;28;20044;-64
2020/12/12 00:39:18;;;;;;;15.10;9.30;;;;;;;;;;5052941;28;20107;-64
2020/12/12 00:41:45;;;;;;;13.20;8.32;;;;;;;;;;5052776;28;20025;-64
2020/12/12 00:44:11;;;;;;;19.05;9.88;;;;;;;;;;5052768;28;20033;-64
2020/12/12 00:46:37;;;;;;;15.15;8.73;;;;;;;;;;5054046;28;20114;-64
2020/12/12 00:49:04;;;;;;;14.18;8.00;;;;;;;;;;5057053;28;20132;-64
2020/12/12 00:51:30;;;;;;;16.02;7.47;;;;;;;;;;5057076;28;20047;-64
2020/12/12 00:53:56;;;;;;;15.68;8.30;;;;;;;;;;5056876;28;20178;-64
2020/12/12 00:56:23;;;;;;;14.30;7.93;;;;;;;;;;5056625;28;20025;-64
2020/12/12 00:58:49;;;;;;;11.73;7.20;;;;;;;;;;5056981;28;20424;-64
2020/12/12 01:01:15;;;;;;;14.35;7.40;;;;;;;;;;5056852;28;20404;-64
2020/12/12 01:03:42;;;;;;;11.52;7.10;;;;;;;;;;5056855;28;20029;-64
2020/12/12 01:06:11;;;;;;;12.02;7.43;;;;;;;;;;5056390;28;20132;-64
2020/12/12 01:08:38;;;;;;;12.48;7.07;;;;;;;;;;5056485;28;20102;-64
2020/12/12 01:11:05;;;;;;;11.43;6.85;;;;;;;;;;5056752;28;20024;-64
2020/12/12 01:13:31;;;;;;;11.63;7.30;;;;;;;;;;5056422;28;20032;-64
2020/12/12 01:15:57;;;;;;;10.52;7.00;;;;;;;;;;5056418;28;20032;-64
2020/12/12 01:18:24;;;;;;;14.18;7.57;;;;;;;;;;5056216;28;20029;-64
2020/12/12 01:20:50;;;;;;;14.57;7.65;;;;;;;;;;5056435;28;20032;-64
2020/12/12 01:23:16;;;;;;;13.30;7.47;;;;;;;;;;5056067;28;20025;-64
2020/12/12 01:25:42;;;;;;;13.05;8.05;;;;;;;;;;5056204;28;20098;-64
2020/12/12 01:28:08;;;;;;;14.48;8.48;;;;;;;;;;5056384;28;20047;-64
2020/12/12 01:30:35;;;;;;;17.02;9.32;;;;;;;;;;5056372;28;20036;-64
2020/12/12 01:33:01;;;;;;;17.83;8.65;;;;;;;;;;5056006;28;20029;-64
2020/12/12 01:35:27;;;;;;;13.27;7.70;;;;;;;;;;5038250;28;20116;-64
2020/12/12 01:37:53;;;;;;;13.23;7.25;;;;;;;;;;5055727;28;20041;-64
2020/12/12 01:40:19;;;;;;;16.40;7.85;;;;;;;;;;5056371;28;20025;-64
2020/12/12 01:42:46;;;;;;;12.88;7.05;;;;;;;;;;5056086;28;20111;-64
2020/12/12 01:45:12;;;;;;;14.73;7.72;;;;;;;;;;5037905;28;20025;-64
2020/12/12 01:47:39;;;;;;;14.65;8.23;;;;;;;;;;5055747;28;20021;-64
2020/12/12 01:50:06;;;;;;;16.63;8.23;;;;;;;;;;5055618;28;20025;-64
2020/12/12 01:52:32;;;;;;;15.00;8.05;;;;;;;;;;5055758;28;20071;-64
2020/12/12 01:55:00;;;;;;;15.60;8.57;;;;;;;;;;5055638;28;20477;-64
2020/12/12 01:57:26;;;;;;;14.05;7.80;;;;;;;;;;5055338;28;20604;-64
2020/12/12 01:59:52;;;;;;;12.20;7.63;;;;;;;;;;5054980;28;20035;-64
2020/12/12 02:02:22;;;;;;;13.63;8.27;;;;;;;;;;5055701;28;20401;-64
2020/12/12 02:04:49;;;;;;;60.67;36.17;;;;;;;;;;5037645;28;20025;-64
2020/12/12 02:07:16;;;;;;;20.20;11.85;;;;;;;;;;5055221;28;20569;-64
2020/12/12 02:09:44;;;;;;;16.83;10.18;;;;;;;;;;5055370;28;20029;-64
2020/12/12 02:12:10;;;;;;;19.20;11.75;;;;;;;;;;5055277;28;20030;-64
2020/12/12 02:14:38;;;;;;;17.90;9.52;;;;;;;;;;5055161;28;20535;-64
2020/12/12 02:17:04;;;;;;;14.40;8.90;;;;;;;;;;5055123;28;20051;-64
2020/12/12 02:19:31;;;;;;;14.43;7.63;;;;;;;;;;5055499;28;20096;-64
2020/12/12 02:22:00;;;;;;;11.40;7.13;;;;;;;;;;5055023;28;20051;-64
2020/12/12 02:24:30;;;;;;;10.77;6.68;;;;;;;;;;5055328;28;20091;-64
2020/12/12 02:26:57;;;;;;;10.20;6.60;;;;;;;;;;5055238;28;20048;-64
2020/12/12 02:29:38;;;;;;;13.52;7.43;;;;;;;;;;5055134;28;20123;-64
2020/12/12 02:32:04;;;;;;;11.65;7.28;;;;;;;;;;5055074;28;20048;-64
2020/12/12 02:34:30;;;;;;;12.48;7.10;;;;;;;;;;5055326;28;20024;-64
2020/12/12 02:36:56;;;;;;;11.82;6.65;;;;;;;;;;5054784;28;20048;-64
2020/12/12 02:39:23;;;;;;;9.55;6.30;;;;;;;;;;5054742;28;20017;-64
2020/12/12 02:41:49;;;;;;;11.88;6.55;;;;;;;;;;5054801;28;20466;-64
2020/12/12 02:44:15;;;;;;;11.98;6.53;;;;;;;;;;5054607;28;20070;-64
2020/12/12 02:46:41;;;;;;;13.68;7.35;;;;;;;;;;5054648;28;20083;-64
2020/12/12 02:49:07;;;;;;;13.80;7.38;;;;;;;;;;5054560;28;20032;-64
2020/12/12 02:51:38;;;;;;;11.65;7.18;;;;;;;;;;5054805;28;20036;-64
2020/12/12 02:54:04;;;;;;;14.48;8.07;;;;;;;;;;5054446;28;20104;-64
2020/12/12 02:56:30;;;;;;;11.60;7.00;;;;;;;;;;5054627;28;20111;-64
2020/12/12 02:58:56;;;;;;;12.82;7.18;;;;;;;;;;5054619;28;20098;-64
2020/12/12 03:01:22;;;;;;;13.20;7.43;;;;;;;;;;5054262;28;20029;-64
2020/12/12 03:03:49;;;;;;;10.23;6.68;;;;;;;;;;5054511;28;20071;-64
2020/12/12 03:06:15;;;;;;;13.52;7.55;;;;;;;;;;5054298;28;20075;-64
2020/12/12 03:08:41;;;;;;;11.25;7.10;;;;;;;;;;5054906;28;20059;-64
2020/12/12 03:11:07;;;;;;;12.30;7.03;;;;;;;;;;5053240;28;20057;-64
2020/12/12 03:13:33;;;;;;;10.70;6.78;;;;;;;;;;5054354;28;20048;-64
2020/12/12 03:16:00;;;;;;;12.05;7.18;;;;;;;;;;5054143;28;20024;-64
2020/12/12 03:18:26;;;;;;;13.52;6.82;;;;;;;;;;5053912;28;20040;-64
2020/12/12 03:20:52;;;;;;;12.00;7.10;;;;;;;;;;5054316;28;20441;-64
2020/12/12 03:23:18;;;;;;;12.38;6.68;;;;;;;;;;5053811;28;20029;-64
2020/12/12 03:25:44;;;;;;;13.07;6.53;;;;;;;;;;5054039;28;20025;-64
2020/12/12 03:28:10;;;;;;;10.70;6.40;;;;;;;;;;5053758;28;20033;-65
2020/12/12 03:30:37;;;;;;;10.70;6.93;;;;;;;;;;5053769;28;20044;-64
2020/12/12 03:33:04;;;;;;;12.15;6.13;;;;;;;;;;5053657;28;20022;-64
2020/12/12 03:35:31;;;;;;;11.23;6.63;;;;;;;;;;5053721;28;20024;-64
2020/12/12 03:37:58;;;;;;;11.88;7.40;;;;;;;;;;5053825;28;20036;-65
2020/12/12 03:40:24;;;;;;;14.95;6.75;;;;;;;;;;5053610;28;20027;-64
2020/12/12 03:42:51;;;;;;;10.43;6.65;;;;;;;;;;5053841;28;20099;-64
2020/12/12 03:45:18;;;;;;;10.65;6.25;;;;;;;;;;5053565;28;20020;-64
2020/12/12 03:47:44;;;;;;;14.63;7.53;;;;;;;;;;5053780;28;20064;-65
2020/12/12 03:50:10;;;;;;;17.40;7.80;;;;;;;;;;5053439;28;20524;-65
2020/12/12 03:52:36;;;;;;;15.00;9.18;;;;;;;;;;5053375;28;20103;-64
2020/12/12 03:55:03;;;;;;;47.47;31.02;;;;;;;;;;5053634;28;20029;-64
2020/12/12 03:57:29;;;;;;;14.27;8.43;;;;;;;;;;5053290;28;20091;-64
2020/12/12 03:59:55;;;;;;;20.42;10.50;;;;;;;;;;5053330;28;20481;-64
2020/12/12 04:02:21;;;;;;;15.45;10.38;;;;;;;;;;5053281;28;20440;-65
2020/12/12 04:04:47;;;;;;;17.98;10.80;;;;;;;;;;5053597;28;20024;-64
2020/12/12 04:07:14;;;;;;;13.80;8.38;;;;;;;;;;5053260;28;20053;-64
2020/12/12 04:09:40;;;;;;;11.13;7.03;;;;;;;;;;5053454;28;20421;-64
2020/12/12 04:12:06;;;;;;;14.20;8.52;;;;;;;;;;5053539;28;20039;-65
2020/12/12 04:14:32;;;;;;;14.98;9.13;;;;;;;;;;5053375;28;20025;-65
2020/12/12 04:16:59;;;;;;;12.57;7.43;;;;;;;;;;5053381;28;20159;-64
2020/12/12 04:19:25;;;;;;;15.05;7.28;;;;;;;;;;5053028;28;20021;-64
2020/12/12 04:21:51;;;;;;;12.88;7.72;;;;;;;;;;5052680;28;20098;-64
2020/12/12 04:24:17;;;;;;;11.77;7.53;;;;;;;;;;5052957;28;20025;-64
2020/12/12 04:26:43;;;;;;;14.43;8.63;;;;;;;;;;5053025;28;20029;-64
2020/12/12 04:29:09;;;;;;;14.93;8.82;;;;;;;;;;5053172;28;20028;-64
2020/12/12 04:31:35;;;;;;;15.32;8.25;;;;;;;;;;5053039;28;20017;-64
2020/12/12 04:34:01;;;;;;;12.00;7.30;;;;;;;;;;5053225;28;20090;-64
2020/12/12 04:36:32;;;;;;;11.55;7.15;;;;;;;;;;5052938;28;20063;-64
2020/12/12 04:38:58;;;;;;;14.75;7.50;;;;;;;;;;5053196;28;20045;-64
2020/12/12 04:41:25;;;;;;;14.68;7.15;;;;;;;;;;5052859;28;20027;-64
2020/12/12 04:43:51;;;;;;;9.60;6.43;;;;;;;;;;5035069;28;20048;-65
2020/12/12 04:46:18;;;;;;;13.57;7.65;;;;;;;;;;5052771;28;20067;-65
2020/12/12 04:48:44;;;;;;;13.68;7.72;;;;;;;;;;5052820;28;20074;-64
2020/12/12 04:51:10;;;;;;;10.60;6.53;;;;;;;;;;5053040;28;20084;-65
2020/12/12 04:53:36;;;;;;;10.38;6.38;;;;;;;;;;5053179;28;20442;-64
2020/12/12 04:56:05;;;;;;;13.20;7.80;;;;;;;;;;5053001;28;20022;-64
2020/12/12 04:58:32;;;;;;;12.60;7.00;;;;;;;;;;5052989;28;20516;-64
2020/12/12 05:00:58;;;;;;;14.10;6.65;;;;;;;;;;5052612;28;20021;-64
2020/12/12 05:03:25;;;;;;;13.50;7.90;;;;;;;;;;5052641;28;20025;-65
2020/12/12 05:05:52;;;;;;;10.07;7.03;;;;;;;;;;5052418;28;20529;-66
2020/12/12 05:08:18;;;;;;;14.20;8.70;;;;;;;;;;5052619;28;20494;-66
2020/12/12 05:10:48;;;;;;;11.85;7.18;;;;;;;;;;5052502;28;20416;-66
2020/12/12 05:13:21;;;;;;;20.70;6.35;;;;;;;;;;5052648;28;20025;-66
2020/12/12 05:15:49;;;;;;;10.20;5.63;;;;;;;;;;5052713;28;20116;-66
2020/12/12 05:18:15;;;;;;;10.38;6.07;;;;;;;;;;5052775;28;20037;-65
2020/12/12 05:20:41;;;;;;;11.70;6.85;;;;;;;;;;5052547;28;20159;-66
2020/12/12 05:23:11;;;;;;;11.25;6.82;;;;;;;;;;5052464;28;20083;-66
2020/12/12 05:25:38;;;;;;;11.50;7.03;;;;;;;;;;5052476;28;20112;-66
2020/12/12 05:28:06;;;;;;;16.25;7.65;;;;;;;;;;5052455;28;20029;-66
2020/12/12 05:30:33;;;;;;;12.75;7.15;;;;;;;;;;5052654;28;20447;-66
2020/12/12 05:33:00;;;;;;;11.80;7.28;;;;;;;;;;5052631;28;20025;-66
2020/12/12 05:35:26;;;;;;;20.27;7.75;;;;;;;;;;5056275;28;20100;-65
2020/12/12 05:37:52;;;;;;;11.95;6.70;;;;;;;;;;5055903;28;20041;-66
2020/12/12 05:40:19;;;;;;;12.93;6.78;;;;;;;;;;5055766;28;20020;-66
2020/12/12 05:42:47;;;;;;;13.60;6.47;;;;;;;;;;5055880;28;20059;-66
2020/12/12 05:45:13;;;;;;;12.27;6.68;;;;;;;;;;5055940;28;20021;-65
2020/12/12 05:47:39;;;;;;;11.48;6.65;;;;;;;;;;5056349;28;20060;-66
2020/12/12 05:50:06;;;;;;;11.07;6.03;;;;;;;;;;5055798;28;20020;-66
2020/12/12 05:52:32;;;;;;;12.35;7.10;;;;;;;;;;5055684;28;20180;-66
2020/12/12 05:54:58;;;;;;;16.83;7.90;;;;;;;;;;5055991;28;20047;-66
2020/12/12 05:57:27;;;;;;;15.18;7.30;;;;;;;;;;5055754;28;20040;-66
2020/12/12 05:59:54;;;;;;;18.42;7.35;;;;;;;;;;5056110;28;20076;-66
2020/12/12 06:02:24;;;;;;;11.57;6.47;;;;;;;;;;5055842;28;20061;-66
2020/12/12 06:04:51;;;;;;;12.82;6.38;;;;;;;;;;5055811;28;20376;-66
2020/12/12 06:07:27;;;;;;;12.60;6.88;;;;;;;;;;5055284;28;20071;-66
2020/12/12 06:09:57;;;;;;;12.18;6.40;;;;;;;;;;5055532;28;20370;-65
2020/12/12 06:12:23;;;;;;;13.55;6.55;;;;;;;;;;5055647;28;20032;-66
2020/12/12 06:14:53;;;;;;;11.63;6.65;;;;;;;;;;5055220;28;20507;-66
2020/12/12 06:17:22;;;;;;;11.00;6.53;;;;;;;;;;5055185;28;20037;-66
2020/12/12 06:19:50;;;;;;;14.45;7.15;;;;;;;;;;5055164;28;20022;-66
2020/12/12 06:22:25;;;;;;;11.52;7.18;;;;;;;;;;5055076;28;20477;-66
2020/12/12 06:24:58;;;;;;;13.20;7.70;;;;;;;;;;5055158;28;20029;-65
2020/12/12 06:27:24;;;;;;;11.68;6.72;;;;;;;;;;5055124;28;20028;-66
2020/12/12 06:29:52;;;;;;;11.85;7.30;;;;;;;;;;5054992;28;20083;-66
2020/12/12 06:32:19;;;;;;;18.52;8.40;;;;;;;;;;5055299;28;20036;-66
2020/12/12 06:34:46;;;;;;;23.63;15.35;;;;;;;;;;5054977;28;20079;-66
2020/12/12 06:37:25;;;;;;;15.35;8.57;;;;;;;;;;5054654;28;20033;-65
2020/12/12 06:39:51;;;;;;;23.88;9.10;;;;;;;;;;5054868;28;20115;-66
2020/12/12 06:42:28;;;;;;;11.88;8.48;;;;;;;;;;5054646;28;20068;-65
2020/12/12 06:44:54;;;;;;;13.98;7.22;;;;;;;;;;5054510;28;20497;-66
2020/12/12 06:47:34;;;;;;;12.55;7.18;;;;;;;;;;5054560;28;20496;-65
2020/12/12 06:50:13;;;;;;;17.25;7.90;;;;;;;;;;5054914;28;20021;-66
2020/12/12 06:52:41;;;;;;;21.10;7.82;;;;;;;;;;5054452;28;20025;-65
2020/12/12 06:55:11;;;;;;;12.90;7.13;;;;;;;;;;5054279;28;20405;-65
2020/12/12 06:57:44;;;;;;;15.02;7.63;;;;;;;;;;5054614;28;20037;-65
2020/12/12 07:00:29;;;;;;;14.18;7.57;;;;;;;;;;5054047;28;20386;-64
2020/12/12 07:03:05;;;;;;;12.25;7.40;;;;;;;;;;5047888;28;20025;-65
2020/12/12 07:05:33;;;;;;;19.13;8.05;;;;;;;;;;5054435;28;20045;-64
2020/12/12 07:08:03;;;;;;;17.35;8.40;;;;;;;;;;5054204;28;20029;-64
2020/12/12 07:10:33;;;;;;;17.45;11.13;;;;;;;;;;5054167;28;20052;-65
2020/12/12 07:12:59;;;;;;;16.95;9.32;;;;;;;;;;5036531;28;20040;-65
2020/12/12 07:15:29;;;;;;;14.50;8.07;;;;;;;;;;5034182;28;20017;-65
2020/12/12 07:17:55;;;;;;;14.15;8.85;;;;;;;;;;5037627;28;20055;-63
2020/12/12 07:20:21;;;;;;;14.45;7.95;;;;;;;;;;5041634;28;20059;-63
2020/12/12 07:22:48;;;;;;;17.02;9.93;;;;;;;;;;5014183;28;20026;-65
2020/12/12 07:25:14;;;;;;;16.23;9.02;;;;;;;;;;5014217;28;20030;-65
2020/12/12 07:27:40;;;;;;;18.85;9.02;;;;;;;;;;5014347;28;20073;-65
2020/12/12 07:30:06;;;;;;;23.85;12.38;;;;;;;;;;5014098;28;20419;-64
2020/12/12 07:32:32;;;;;;;23.77;11.90;;;;;;;;;;5039118;28;20491;-63
2020/12/12 07:35:06;;;;;;;20.95;12.88;;;;;;;;;;5047399;28;20386;-63
2020/12/12 07:37:33;;;;;;;17.95;11.60;;;;;;;;;;5049325;28;20037;-65
2020/12/12 07:39:59;;;;;;;22.05;12.90;;;;;;;;;;5042375;28;20487;-64
2020/12/12 07:42:32;;;;;;;13.88;9.02;;;;;;;;;;5041867;28;20502;-63
2020/12/12 07:45:17;;;;;;;16.83;10.02;;;;;;;;;;5033875;28;20017;-64
2020/12/12 07:47:44;;;;;;;13.85;8.98;;;;;;;;;;5033554;28;20065;-64
2020/12/12 07:50:10;;;;;;;18.67;7.55;;;;;;;;;;5035891;28;20025;-65
2020/12/12 07:52:40;;;;;;;12.95;6.68;;;;;;;;;;5039327;28;20033;-65
2020/12/12 07:55:11;;;;;;;18.08;8.00;;;;;;;;;;5053431;28;20021;-64
2020/12/12 07:57:44;;;;;;;15.15;7.63;;;;;;;;;;5052756;28;20037;-65
2020/12/12 08:00:12;;;;;;;18.73;7.45;;;;;;;;;;5038107;28;20089;-63
2020/12/12 08:02:38;;;;;;;20.35;7.68;;;;;;;;;;5053289;28;20025;-63
2020/12/12 08:05:05;;;;;;;13.55;7.10;;;;;;;;;;5053252;28;20021;-64
2020/12/12 08:07:32;;;;;;;15.35;6.47;;;;;;;;;;5033445;28;20041;-65
2020/12/12 08:09:58;;;;;;;15.30;6.57;;;;;;;;;;5033605;28;20028;-65
2020/12/12 08:12:30;;;;;;;14.30;6.15;;;;;;;;;;5027077;28;20048;-65
2020/12/12 08:14:58;;;;;;;15.73;6.53;;;;;;;;;;5033338;28;20418;-65
2020/12/12 08:17:33;;;;;;;14.07;5.38;;;;;;;;;;5033155;28;20029;-65
2020/12/12 08:19:59;;;;;;;22.75;6.03;;;;;;;;;;5033305;28;20494;-65
2020/12/12 08:22:25;;;;;;;12.32;6.03;;;;;;;;;;5033291;28;20416;-66
2020/12/12 08:24:52;;;;;;;17.13;6.88;;;;;;;;;;5032450;28;20466;-64
2020/12/12 08:27:25;;;;;;;17.02;7.00;;;;;;;;;;5013472;28;20057;-65
2020/12/12 08:29:51;;;;;;;15.15;7.00;;;;;;;;;;5013244;28;20242;-64
2020/12/12 08:32:27;;;;;;;22.38;11.23;;;;;;;;;;5013233;28;20118;-65
2020/12/12 08:35:07;;;;;;;25.35;13.13;;;;;;;;;;5013521;28;20022;-65
2020/12/12 08:37:33;;;;;;;20.02;11.10;;;;;;;;;;5013370;28;20034;-65
2020/12/12 08:40:04;;;;;;;37.38;17.58;;;;;;;;;;5013408;28;20053;-65
2020/12/12 08:42:30;;;;;;;35.50;14.88;;;;;;;;;;5013577;28;20041;-65
2020/12/12 08:44:56;;;;;;;25.35;10.90;;;;;;;;;;5013238;28;20022;-65
2020/12/12 08:47:22;;;;;;;20.30;9.77;;;;;;;;;;5013165;28;20026;-65
2020/12/12 08:49:55;;;;;;;20.83;9.68;;;;;;;;;;5015656;28;20022;-65
2020/12/12 08:52:27;;;;;;;24.30;11.18;;;;;;;;;;5013096;28;20030;-65
2020/12/12 08:55:03;;;;;;;33.33;11.13;;;;;;;;;;5013267;28;20105;-65
2020/12/12 08:57:30;;;;;;;35.90;11.18;;;;;;;;;;5027062;28;20124;-65
2020/12/12 09:00:00;;;;;;;26.60;8.73;;;;;;;;;;5032670;28;20060;-65
2020/12/12 09:02:26;;;;;;;14.30;7.63;;;;;;;;;;5032944;28;20030;-65
2020/12/12 09:05:07;;;;;;;17.05;7.65;;;;;;;;;;5032775;28;20026;-65
2020/12/12 09:07:33;;;;;;;14.20;6.88;;;;;;;;;;5034120;28;20429;-64
2020/12/12 09:10:13;;;;;;;10.93;6.10;;;;;;;;;;5036542;28;20030;-65
2020/12/12 09:12:46;;;;;;;9.15;4.90;;;;;;;;;;5036912;28;20057;-66
2020/12/12 09:15:13;;;;;;;11.43;5.82;;;;;;;;;;5036595;28;20021;-65
2020/12/12 09:17:39;;;;;;;11.88;5.72;;;;;;;;;;5036586;28;20483;-65
2020/12/12 09:20:08;;;;;;;12.25;4.68;;;;;;;;;;5036285;28;20028;-65
2020/12/12 09:22:35;;;;;;;8.52;4.72;;;;;;;;;;5024490;28;20120;-65
2020/12/12 09:25:02;;;;;;;6.72;3.30;;;;;;;;;;5016623;28;20022;-64
2020/12/12 09:27:28;;;;;;;6.15;3.67;;;;;;;;;;5016608;28;20388;-65
2020/12/12 09:29:54;;;;;;;8.88;3.65;;;;;;;;;;5016290;28;20022;-65
2020/12/12 09:32:20;;;;;;;6.72;3.50;;;;;;;;;;5016509;28;20454;-65
2020/12/12 09:34:47;;;;;;;7.32;5.60;;;;;;;;;;5016330;28;20037;-65
2020/12/12 09:37:13;;;;;;;11.32;4.40;;;;;;;;;;5016094;28;20038;-65
2020/12/12 09:39:39;;;;;;;14.85;4.95;;;;;;;;;;5015975;28;20051;-65
2020/12/12 09:42:05;;;;;;;4.50;3.17;;;;;;;;;;5016423;28;20027;-65
2020/12/12 09:44:32;;;;;;;5.07;3.35;;;;;;;;;;5016104;28;20680;-65
2020/12/12 09:46:58;;;;;;;14.48;4.38;;;;;;;;;;5016080;28;20141;-65
2020/12/12 09:49:24;;;;;;;14.35;3.35;;;;;;;;;;5016243;28;20390;-65
2020/12/12 09:51:50;;;;;;;6.85;4.47;;;;;;;;;;5015957;28;20053;-66
2020/12/12 09:54:17;;;;;;;18.80;6.88;;;;;;;;;;5016095;28;20026;-66
2020/12/12 09:56:43;;;;;;;32.58;13.90;;;;;;;;;;5023580;28;20482;-65
2020/12/12 09:59:09;;;;;;;18.35;5.80;;;;;;;;;;5015824;28;20042;-64
2020/12/12 10:01:35;;;;;;;6.78;4.43;;;;;;;;;;5030373;28;20030;-65
2020/12/12 10:04:01;;;;;;;12.63;5.63;;;;;;;;;;5035668;28;20056;-65
2020/12/12 10:06:27;;;;;;;19.20;5.95;;;;;;;;;;5046490;28;20060;-65
2020/12/12 10:08:53;;;;;;;6.70;3.45;;;;;;;;;;5055419;28;20025;-66
2020/12/12 10:11:19;;;;;;;7.70;5.20;;;;;;;;;;5052159;28;20323;-65
2020/12/12 10:13:46;;;;;;;8.55;3.75;;;;;;;;;;5035293;28;20021;-66
2020/12/12 10:16:12;;;;;;;14.50;3.75;;;;;;;;;;5035457;28;20030;-66
2020/12/12 10:18:38;;;;;;;9.95;3.60;;;;;;;;;;5035069;28;20033;-66
2020/12/12 10:21:04;;;;;;;22.10;4.72;;;;;;;;;;5034951;28;20089;-65
2020/12/12 10:23:30;;;;;;;12.90;6.13;;;;;;;;;;5035212;28;20510;-65
2020/12/12 10:25:56;;;;;;;16.77;5.30;;;;;;;;;;5035009;28;20100;-66
2020/12/12 10:28:22;;;;;;;20.60;5.35;;;;;;;;;;5035080;28;20017;-65
2020/12/12 10:30:49;;;;;;;10.98;5.45;;;;;;;;;;5034831;28;20029;-65
2020/12/12 10:33:15;;;;;;;24.73;10.18;;;;;;;;;;5035232;28;20049;-64
2020/12/12 10:35:41;;;;;;;13.75;7.28;;;;;;;;;;5047996;28;20582;-63
2020/12/12 10:38:09;;;;;;;14.50;5.70;;;;;;;;;;5034438;28;20029;-64
2020/12/12 10:40:47;;;;;;;23.27;5.07;;;;;;;;;;5034156;28;20029;-64
2020/12/12 10:43:14;;;;;;;19.50;5.97;;;;;;;;;;5042570;28;20033;-64
2020/12/12 10:45:42;;;;;;;20.10;5.78;;;;;;;;;;5039391;28;20057;-64
2020/12/12 10:48:08;;;;;;;16.80;6.53;;;;;;;;;;5039791;28;20034;-66
2020/12/12 10:50:34;;;;;;;13.35;4.82;;;;;;;;;;5032259;28;20061;-65
2020/12/12 10:53:00;;;;;;;28.25;6.07;;;;;;;;;;5039065;28;20056;-66
2020/12/12 10:55:26;;;;;;;18.80;6.43;;;;;;;;;;5034563;28;20126;-66
2020/12/12 10:57:52;;;;;;;13.60;5.05;;;;;;;;;;5038230;28;20501;-64
2020/12/12 11:00:26;;;;;;;12.98;5.32;;;;;;;;;;5039569;28;20417;-64
2020/12/12 11:02:52;;;;;;;12.00;5.90;;;;;;;;;;5034267;28;20034;-66
2020/12/12 11:05:19;;;;;;;19.30;5.45;;;;;;;;;;5040942;28;20378;-64
2020/12/12 11:07:45;;;;;;;19.63;6.45;;;;;;;;;;5061617;28;20493;-63
2020/12/12 11:10:11;;;;;;;15.73;4.80;;;;;;;;;;5054181;28;20029;-63
2020/12/12 11:12:37;;;;;;;19.35;5.80;;;;;;;;;;5054198;28;20131;-65
2020/12/12 11:15:03;;;;;;;26.20;4.97;;;;;;;;;;5056802;28;20368;-64
2020/12/12 11:17:30;;;;;;;14.10;4.57;;;;;;;;;;5074037;28;20055;-65
2020/12/12 11:19:56;;;;;;;27.77;6.90;;;;;;;;;;5058369;28;20021;-65
2020/12/12 11:22:22;;;;;;;15.85;5.40;;;;;;;;;;5053302;28;20037;-64
2020/12/12 11:24:48;;;;;;;16.90;6.35;;;;;;;;;;5064929;28;20024;-65
2020/12/12 11:27:14;;;;;;;20.15;8.30;;;;;;;;;;5060010;28;20029;-64
2020/12/12 11:29:40;;;;;;;24.65;10.88;;;;;;;;;;5063622;28;20462;-64
2020/12/12 11:32:09;;;;;;;19.42;9.98;;;;;;;;;;5045184;28;20493;-64
2020/12/12 11:34:39;;;;;;;14.65;9.30;;;;;;;;;;5044266;28;20020;-64
2020/12/12 11:39:40;;;;;;;9.18;5.57;;;;;;;;;;5053712;28;20029;-65
2020/12/12 11:47:36;;;;;;;12.90;6.22;;;;;;;;;;5053741;28;20036;-65
2020/12/12 11:50:03;;;;;;;24.90;6.93;;;;;;;;;;5053570;28;20563;-65
2020/12/12 11:52:29;;;;;;;24.67;6.47;;;;;;;;;;5053337;28;20018;-65
2020/12/12 11:54:55;;;;;;;27.83;7.45;;;;;;;;;;5053646;28;20028;-64
2020/12/12 11:57:22;;;;;;;24.13;7.05;;;;;;;;;;5053403;28;20033;-65
2020/12/12 11:59:48;;;;;;;15.25;5.97;;;;;;;;;;5053341;28;20033;-65
2020/12/12 12:02:14;;;;;;;19.38;8.65;;;;;;;;;;5052703;28;20465;-64
2020/12/12 12:04:41;;;;;;;15.70;4.20;;;;;;;;;;5053283;28;20032;-65
2020/12/12 12:07:07;;;;;;;8.45;4.88;;;;;;;;;;5053004;28;20129;-66
2020/12/12 12:09:41;;;;;;;9.55;5.57;;;;;;;;;;5053511;28;20450;-65
2020/12/12 12:12:07;;;;;;;17.23;5.80;;;;;;;;;;5053146;28;20021;-65
2020/12/12 12:14:33;;;;;;;20.20;5.63;;;;;;;;;;5053008;28;20036;-67
2020/12/12 12:16:59;;;;;;;12.80;5.18;;;;;;;;;;5053228;28;20110;-63
2020/12/12 12:19:25;;;;;;;23.20;6.07;;;;;;;;;;5052971;28;20025;-64
2020/12/12 12:21:52;;;;;;;14.20;5.30;;;;;;;;;;5052902;28;20108;-64
2020/12/12 12:24:19;;;;;;;18.52;6.95;;;;;;;;;;5053360;28;20112;-64
2020/12/12 12:26:48;;;;;;;23.48;6.38;;;;;;;;;;5052930;28;20028;-64
2020/12/12 12:29:14;;;;;;;14.75;7.47;;;;;;;;;;5052962;28;20068;-65
2020/12/12 12:31:41;;;;;;;28.95;9.00;;;;;;;;;;5052897;28;20037;-63
2020/12/12 12:34:07;;;;;;;28.15;13.82;;;;;;;;;;5056910;28;20039;-63
2020/12/12 12:36:34;;;;;;;22.17;8.68;;;;;;;;;;5057392;28;20017;-64
2020/12/12 12:39:00;;;;;;;18.42;7.05;;;;;;;;;;5060723;28;20033;-64
2020/12/12 12:41:27;;;;;;;17.30;6.80;;;;;;;;;;5063236;28;20112;-63
2020/12/12 12:43:54;;;;;;;16.15;6.80;;;;;;;;;;5060251;28;20021;-64
2020/12/12 12:46:24;;;;;;;11.73;5.90;;;;;;;;;;5061313;28;20427;-64
2020/12/12 12:48:50;;;;;;;10.95;6.35;;;;;;;;;;5052486;28;20033;-63
2020/12/12 12:51:16;;;;;;;10.00;5.25;;;;;;;;;;5054134;28;20072;-63
2020/12/12 12:53:42;;;;;;;12.25;5.00;;;;;;;;;;5058110;28;20044;-64
2020/12/12 12:56:08;;;;;;;12.95;5.30;;;;;;;;;;5054477;28;20028;-63
2020/12/12 12:58:35;;;;;;;7.38;4.93;;;;;;;;;;5052412;28;20084;-64
2020/12/12 13:01:01;;;;;;;9.45;5.70;;;;;;;;;;5059949;28;20318;-64
2020/12/12 13:03:27;;;;;;;14.30;6.43;;;;;;;;;;5053597;28;20087;-65
2020/12/12 13:05:53;;;;;;;22.83;7.10;;;;;;;;;;5054833;28;20044;-64
2020/12/12 13:08:19;;;;;;;15.05;7.20;;;;;;;;;;5037919;28;20393;-65
2020/12/12 13:10:46;;;;;;;9.05;6.05;;;;;;;;;;5034655;28;20021;-63
2020/12/12 13:13:13;;;;;;;14.55;6.65;;;;;;;;;;5052980;28;20433;-65
2020/12/12 13:15:39;;;;;;;11.95;6.15;;;;;;;;;;5044357;28;20419;-63
2020/12/12 13:18:17;;;;;;;18.17;6.40;;;;;;;;;;5054307;28;20041;-65
2020/12/12 13:23:13;;;;;;;10.65;4.70;;;;;;;;;;5034772;28;20033;-65
2020/12/12 13:25:41;;;;;;;19.70;6.38;;;;;;;;;;5039634;28;20064;-64
2020/12/12 13:28:46;;;;;;;14.18;5.75;;;;;;;;;;5043436;28;20022;-62
2020/12/12 13:31:08;;;;;;;14.75;4.72;;;;;;;;;;5045377;28;20037;-62
2020/12/12 13:33:36;;;;;;;14.63;6.00;;;;;;;;;;5048030;28;20029;-65
2020/12/12 13:36:07;;;;;;;9.32;5.88;;;;;;;;;;5042170;28;20033;-65
2020/12/12 13:38:34;;;;;;;10.18;5.13;;;;;;;;;;5034523;28;20067;-65
2020/12/12 13:41:01;;;;;;;11.50;4.43;;;;;;;;;;5034573;28;20093;-65
2020/12/12 13:43:27;;;;;;;11.48;5.00;;;;;;;;;;5033796;28;20029;-64
2020/12/12 13:45:54;;;;;;;17.70;5.65;;;;;;;;;;5032448;28;20029;-65
2020/12/12 13:48:20;;;;;;;14.82;5.68;;;;;;;;;;5041598;28;20037;-63
2020/12/12 13:50:46;;;;;;;17.33;7.22;;;;;;;;;;5033893;28;20408;-65
2020/12/12 13:53:12;;;;;;;15.52;5.53;;;;;;;;;;5034678;28;20375;-65
2020/12/12 13:55:38;;;;;;;10.88;6.18;;;;;;;;;;5043709;28;20041;-65
2020/12/12 13:58:05;;;;;;;13.20;6.43;;;;;;;;;;5035832;28;20046;-65
2020/12/12 14:00:31;;;;;;;21.30;7.10;;;;;;;;;;5033655;28;20109;-65
2020/12/12 14:02:57;;;;;;;20.20;8.88;;;;;;;;;;5034108;28;20124;-65
2020/12/12 14:05:25;;;;;;;17.70;9.82;;;;;;;;;;5047894;28;20025;-64
2020/12/12 14:07:52;;;;;;;15.15;6.85;;;;;;;;;;5059502;28;20032;-65
2020/12/12 14:24:05;;;;;;;16.23;6.00;;;;;;;;;;5052840;28;20032;-65
2020/12/12 14:29:16;;;;;;;11.52;5.97;;;;;;;;;;5065327;28;20039;-63
2020/12/12 14:31:42;;;;;;;12.32;5.70;;;;;;;;;;5060964;28;20401;-63
2020/12/12 14:34:08;;;;;;;16.90;5.53;;;;;;;;;;5062710;28;20469;-62
2020/12/12 14:36:34;;;;;;;11.30;5.88;;;;;;;;;;5053244;28;20037;-62
2020/12/12 14:39:00;;;;;;;14.10;6.00;;;;;;;;;;5052985;28;20060;-62
2020/12/12 14:41:26;;;;;;;12.57;6.15;;;;;;;;;;5053087;28;20060;-63
2020/12/12 14:43:52;;;;;;;10.77;6.90;;;;;;;;;;5052431;28;20033;-63
2020/12/12 14:46:19;;;;;;;17.58;6.38;;;;;;;;;;5052406;28;20033;-66
2020/12/12 14:48:46;;;;;;;13.18;7.00;;;;;;;;;;5044901;28;20040;-65
2020/12/12 14:51:12;;;;;;;12.50;7.78;;;;;;;;;;5052837;28;20044;-65
2020/12/12 14:53:39;;;;;;;20.98;10.57;;;;;;;;;;5054011;28;20028;-64
2020/12/12 14:56:05;;;;;;;14.25;8.80;;;;;;;;;;5052859;28;20447;-65